Venus, Pennsylvania
Current Conditions -  °F | °C
As of 4:15 AM on Monday 24 Nov 2014 (Local Time) from KFKL Reporting Station
Overcast Overcast  
Wind Chill: 52°   Ceiling: 2900
Heat Index: 52°   Visibility: 10mi
Dew Point: 48°   Wind: 15mph
Humidity: 88%   Direction: 160°SSE
Pressure: 29.38"   Gusts: 22mph
Location:  41.37°N, 79.48°W
Report Text: KFKL 240915Z AUTO 16013G19KT 10SM FEW012 BKN029 OVC034 11/09 A2938 RMK AO1
Loading
Personal Weather Stations






























Interactive Weather Map New forecast layout! Learn more

10-Day Weather Forecast

Advertisements
Track Severe Weather on mobile